Etusivu
METAR-TAF:

METAR-TAF

Lentoasemat :

Hassi R'Mel, Algeria

Leveyspiiri: 32-55-48N, Pituuspiiri: 003-18-44E, korkeus merenpinnasta: 774 m

Tämänhetkinen sää

Tämä raportti tehtiin 1 tunti ja 12 minuuttia sitten, kello 13.00 UTC
Tuuli 22 kn etelästä
Lämpötila 42°C
Ilmanpaine 1016 hPa
Näkyvyys: 8000 m

METAR: DAFH 251300Z 18022KT 8000 NSC 42/// Q1016

Aika: 15:12 (14:12 UTC)

Sääennuste

Tämä raportti tehtiin 6 tuntia ja 12 minuuttia sitten, kello 08.00 UTC
Ennuste voimassa 25. päivästä klo 09 UTC - 25. päivään klo 18 UTC
Tuuli 14 kn etelästä
Näkyvyys: 8000 m
Hajanaisia pilviä 3600 ft:n korkeudessa
Todennäköisyys 40% :
Ajoittain
25. päivästä klo 10 UTC - 25. päivään klo 14 UTC
Tuuli 24 kn etelästä
Näkyvyys: 3000 m
Muutamia pilviä 3600 ft:n korkeudessa, Kasvava cumulus-pilvi.
matalaa hiekkatuisku

TAF: DAFH 250800Z 2509/2518 18014KT 8000 SCT036 PROB40 TEMPO 2510/2514 18024KT 3000 DRSA FEW036TCU

Säähavainnot ja -ennusteet yli 4000 lentoasemalta (METAR- ja TAF-raportit).

Käytössä olevat sääasemat on merkitty karttaan keltaisilla ja punaisilla pisteillä.

Aseta hiiri pisteen päälle nähdäksesi sääaseman nimen.

Klikkaa sitten nähdäksesi säähavainnot ja -ennusteet.

Kartan vaihtaminen: klikkaa mustalla rastilla varustettuja vihreitä pisteitä, niin voit zoomata sisään; viivalla varustettua vihreää pistettä, niin voit zoomata ulos tai vihreitä nuolia, niin pääset viereisille kartoille.


METAR-TAF: